ADDS METAR Data INFO
IDs: Format: Raw Decoded Include TAF

Data at: 0452 UTC 25 May 2018

METAR for:PAAK (Atka Arpt, AK, US)
Text:PAAK 250449Z AUTO 33014KT 10SM SCT022 OVC030 06/02 A2964 RMK AO2 RAE45 PNO $
Temperature: 6.0°C ( 43°F)
Dewpoint: 2.0°C ( 36°F) [RH = 75%]
Pressure (altimeter):29.64 inches Hg (1003.8 mb)
Winds:from the NNW (330 degrees) at 16 MPH (14 knots; 7.2 m/s)
Visibility:10 or more sm (16+ km)
Ceiling:3000 feet AGL
Clouds: scattered clouds at 2200 feet AGL, overcast cloud deck at 3000 feet AGL
QC Flag:automated observation with no human augmentation; SOME DATA ABOVE MAY BE INACCURATE!!!"$" is an indication the sensor requires maintenance.
Text:PAAK 250356Z AUTO 31011KT 9SM -RA FEW017 OVC024 06/04 A2961 RMK AO2 RAB17E35B53 SLP030 T00610039 PNO $
Temperature: 6.1°C ( 43°F)
Dewpoint: 3.9°C ( 39°F) [RH = 86%]
Pressure (altimeter):29.61 inches Hg (1002.8 mb) [Sea level pressure: 1003.0 mb]
Winds:from the NW (310 degrees) at 13 MPH (11 knots; 5.7 m/s)
Visibility: 9 sm ( 14 km)
Ceiling:2400 feet AGL
Clouds: few clouds at 1700 feet AGL, overcast cloud deck at 2400 feet AGL
Weather:-RA (light rain)
QC Flag:automated observation with no human augmentation; SOME DATA ABOVE MAY BE INACCURATE!!!"$" is an indication the sensor requires maintenance.
Text:PAAK 250312Z AUTO 30017G24KT 10SM FEW013 OVC028 06/04 A2960 RMK AO2 PNO $
Temperature: 6.0°C ( 43°F)
Dewpoint: 4.0°C ( 39°F) [RH = 87%]
Pressure (altimeter):29.60 inches Hg (1002.5 mb)
Winds:from the WNW (300 degrees) at 20 MPH (17 knots; 8.7 m/s) gusting to 28 MPH (24 knots; 12.3 m/s)
Visibility:10 or more sm (16+ km)
Ceiling:2800 feet AGL
Clouds: few clouds at 1300 feet AGL, overcast cloud deck at 2800 feet AGL
QC Flag:automated observation with no human augmentation; SOME DATA ABOVE MAY BE INACCURATE!!!"$" is an indication the sensor requires maintenance.
Text:PAAK 250216Z AUTO 29019KT 10SM -RA FEW014 BKN038 06/04 A2958 RMK AO2 RAB08 PNO $
Temperature: 6.0°C ( 43°F)
Dewpoint: 4.0°C ( 39°F) [RH = 87%]
Pressure (altimeter):29.58 inches Hg (1001.8 mb)
Winds:from the WNW (290 degrees) at 22 MPH (19 knots; 9.8 m/s)
Visibility:10 or more sm (16+ km)
Ceiling:3800 feet AGL
Clouds: few clouds at 1400 feet AGL, broken clouds at 3800 feet AGL
Weather:-RA (light rain)
QC Flag:automated observation with no human augmentation; SOME DATA ABOVE MAY BE INACCURATE!!!"$" is an indication the sensor requires maintenance.
Text:PAAK 250203Z AUTO 30017KT 9SM FEW012 BKN018 OVC038 06/03 A2959 RMK AO2 PNO $
Temperature: 6.0°C ( 43°F)
Dewpoint: 3.0°C ( 37°F) [RH = 81%]
Pressure (altimeter):29.59 inches Hg (1002.1 mb)
Winds:from the WNW (300 degrees) at 20 MPH (17 knots; 8.7 m/s)
Visibility: 9 sm ( 14 km)
Ceiling:1800 feet AGL
Clouds: few clouds at 1200 feet AGL, broken clouds at 1800 feet AGL, overcast cloud deck at 3800 feet AGL
QC Flag:automated observation with no human augmentation; SOME DATA ABOVE MAY BE INACCURATE!!!"$" is an indication the sensor requires maintenance.
Text:PAAK 250156Z AUTO 29015KT 10SM BKN012 BKN021 OVC038 06/03 A2958 RMK AO2 RAE52 SLP020 T00560033 PNO $
Temperature: 5.6°C ( 42°F)
Dewpoint: 3.3°C ( 38°F) [RH = 85%]
Pressure (altimeter):29.58 inches Hg (1001.8 mb) [Sea level pressure: 1002.0 mb]
Winds:from the WNW (290 degrees) at 17 MPH (15 knots; 7.7 m/s)
Visibility:10 or more sm (16+ km)
Ceiling:1200 feet AGL
Clouds: broken clouds at 1200 feet AGL, broken clouds at 2100 feet AGL, overcast cloud deck at 3800 feet AGL
QC Flag:automated observation with no human augmentation; SOME DATA ABOVE MAY BE INACCURATE!!!"$" is an indication the sensor requires maintenance.
Text:PAAK 250054Z AUTO 28016G21KT 7SM -RA SCT010 OVC023 06/03 A2960 RMK AO2 RAB2359 PNO $
Temperature: 6.0°C ( 43°F)
Dewpoint: 3.0°C ( 37°F) [RH = 81%]
Pressure (altimeter):29.60 inches Hg (1002.5 mb)
Winds:from the W (280 degrees) at 18 MPH (16 knots; 8.2 m/s) gusting to 24 MPH (21 knots; 10.8 m/s)
Visibility: 7 sm ( 11 km)
Ceiling:2300 feet AGL
Clouds: scattered clouds at 1000 feet AGL, overcast cloud deck at 2300 feet AGL
Weather:-RA (light rain)
QC Flag:automated observation with no human augmentation; SOME DATA ABOVE MAY BE INACCURATE!!!"$" is an indication the sensor requires maintenance.
Text:PAAK 250021Z AUTO 30015G18KT 4SM -RA BR BKN008 BKN019 OVC029 06/04 A2958 RMK AO2 RAB2359 PNO $
Temperature: 6.0°C ( 43°F)
Dewpoint: 4.0°C ( 39°F) [RH = 87%]
Pressure (altimeter):29.58 inches Hg (1001.8 mb)
Winds:from the WNW (300 degrees) at 17 MPH (15 knots; 7.7 m/s) gusting to 21 MPH (18 knots; 9.3 m/s)
Visibility: 4 sm ( 6 km)
Ceiling:800 feet AGL
Clouds: broken clouds at 800 feet AGL, broken clouds at 1900 feet AGL, overcast cloud deck at 2900 feet AGL
Weather:-RA BR (light rain, mist)
QC Flag:automated observation with no human augmentation; SOME DATA ABOVE MAY BE INACCURATE!!!"$" is an indication the sensor requires maintenance.
Text:PAAK 242356Z AUTO 26014KT 10SM FEW014 BKN023 OVC031 06/03 A2956 RMK AO2 RAB11E28 SLP011 6//// T00560028 10061 20039 51008 PNO $
Temperature: 5.6°C ( 42°F)
Dewpoint: 2.8°C ( 37°F) [RH = 82%]
Pressure (altimeter):29.56 inches Hg (1001.1 mb) [Sea level pressure: 1001.1 mb]
Winds:from the W (260 degrees) at 16 MPH (14 knots; 7.2 m/s)
Visibility:10 or more sm (16+ km)
Ceiling:2300 feet AGL
Clouds: few clouds at 1400 feet AGL, broken clouds at 2300 feet AGL, overcast cloud deck at 3100 feet AGL
QC Flag:automated observation with no human augmentation; SOME DATA ABOVE MAY BE INACCURATE!!!"$" is an indication the sensor requires maintenance.
Text:PAAK 242337Z AUTO 29011KT 10SM SCT008 SCT012 OVC023 06/03 A2956 RMK AO2 RAB11E28 PNO $
Temperature: 6.0°C ( 43°F)
Dewpoint: 3.0°C ( 37°F) [RH = 81%]
Pressure (altimeter):29.56 inches Hg (1001.1 mb)
Winds:from the WNW (290 degrees) at 13 MPH (11 knots; 5.7 m/s)
Visibility:10 or more sm (16+ km)
Ceiling:2300 feet AGL
Clouds: scattered clouds at 800 feet AGL, scattered clouds at 1200 feet AGL, overcast cloud deck at 2300 feet AGL
QC Flag:automated observation with no human augmentation; SOME DATA ABOVE MAY BE INACCURATE!!!"$" is an indication the sensor requires maintenance.
Text:PAAK 242256Z AUTO 27015KT 10SM BKN010 OVC025 06/04 A2955 RMK AO2 SLP007 T00560039 PNO $
Temperature: 5.6°C ( 42°F)
Dewpoint: 3.9°C ( 39°F) [RH = 89%]
Pressure (altimeter):29.55 inches Hg (1000.8 mb) [Sea level pressure: 1000.7 mb]
Winds:from the W (270 degrees) at 17 MPH (15 knots; 7.7 m/s)
Visibility:10 or more sm (16+ km)
Ceiling:1000 feet AGL
Clouds: broken clouds at 1000 feet AGL, overcast cloud deck at 2500 feet AGL
QC Flag:automated observation with no human augmentation; SOME DATA ABOVE MAY BE INACCURATE!!!"$" is an indication the sensor requires maintenance.

TAF for:PAAK (Atka Arpt, AK, US)
Text:No data found